createdAt,value
2018-11-10T00:02:28.597Z,32.67
2018-11-10T00:04:57.517Z,27.60
2018-11-10T00:07:26.437Z,30.25
2018-11-10T00:10:11.172Z,28.12
2018-11-10T00:12:40.125Z,28.25
2018-11-10T00:15:11.041Z,30.08
2018-11-10T00:17:39.982Z,29.32
2018-11-10T00:20:09.013Z,29.37
2018-11-10T00:22:39.044Z,31.45
2018-11-10T00:25:09.349Z,26.87
2018-11-10T00:27:38.274Z,29.18
2018-11-10T00:30:08.901Z,33.10
2018-11-10T00:32:37.821Z,34.27
2018-11-10T00:35:06.950Z,30.40
2018-11-10T00:37:35.886Z,32.45
2018-11-10T00:40:05.361Z,32.38
2018-11-10T00:42:34.293Z,32.67
2018-11-10T00:45:03.274Z,27.60
2018-11-10T00:47:32.179Z,31.90
2018-11-10T00:50:01.095Z,28.15
2018-11-10T00:52:30.019Z,25.55
2018-11-10T00:54:58.953Z,28.83
2018-11-10T00:57:27.929Z,27.35
2018-11-10T00:59:56.854Z,25.88
2018-11-10T01:02:25.769Z,28.32
2018-11-10T01:04:54.693Z,27.70
2018-11-10T01:07:23.594Z,28.95
2018-11-10T01:09:52.521Z,28.30
2018-11-10T01:12:21.424Z,28.70
2018-11-10T01:14:50.342Z,25.85
2018-11-10T01:17:19.241Z,27.00
2018-11-10T01:19:48.171Z,28.25
2018-11-10T01:22:17.057Z,28.00
2018-11-10T01:24:45.977Z,24.43
2018-11-10T01:27:14.896Z,25.45
2018-11-10T01:29:43.829Z,25.20
2018-11-10T01:32:12.736Z,29.10
2018-11-10T01:34:41.644Z,27.90
2018-11-10T01:37:10.553Z,29.55
2018-11-10T01:39:39.501Z,27.80
2018-11-10T01:42:08.422Z,26.75
2018-11-10T01:44:37.373Z,30.95
2018-11-10T01:47:06.305Z,26.35
2018-11-10T01:49:35.246Z,26.73
2018-11-10T01:52:04.187Z,25.95
2018-11-10T01:54:33.122Z,27.10
2018-11-10T01:57:02.025Z,28.75
2018-11-10T01:59:30.953Z,28.60
2018-11-10T02:01:59.881Z,30.68
2018-11-10T02:04:28.818Z,27.87
2018-11-10T02:06:57.712Z,28.17
2018-11-10T02:09:26.664Z,28.05
2018-11-10T02:11:55.566Z,32.20
2018-11-10T02:14:24.498Z,30.68
2018-11-10T02:16:53.444Z,34.55
2018-11-10T02:19:22.443Z,35.40
2018-11-10T02:21:51.386Z,31.45
2018-11-10T02:24:20.382Z,32.35
2018-11-10T02:26:49.325Z,33.08
2018-11-10T02:29:18.245Z,32.80
2018-11-10T02:31:47.200Z,34.45
2018-11-10T02:34:16.117Z,35.10
2018-11-10T02:36:45.062Z,36.35
2018-11-10T02:39:13.989Z,33.08
2018-11-10T02:41:42.928Z,34.48
2018-11-10T02:44:11.856Z,39.50
2018-11-10T02:46:40.777Z,35.73
2018-11-10T02:49:09.721Z,35.55
2018-11-10T02:51:38.657Z,32.77
2018-11-10T02:54:07.558Z,37.58
2018-11-10T02:56:36.508Z,30.97
2018-11-10T02:59:05.458Z,32.43
2018-11-10T03:01:34.397Z,38.00
2018-11-10T03:04:03.332Z,32.28
2018-11-10T03:06:32.240Z,33.50
2018-11-10T03:09:01.153Z,34.75
2018-11-10T03:11:30.112Z,35.25
2018-11-10T03:13:59.041Z,34.10
2018-11-10T03:16:28.019Z,33.55
2018-11-10T03:18:56.917Z,33.75
2018-11-10T03:21:25.853Z,30.52
2018-11-10T03:23:54.781Z,31.50
2018-11-10T03:26:23.717Z,34.63
2018-11-10T03:28:52.665Z,36.15
2018-11-10T03:31:21.766Z,29.82
2018-11-10T03:33:50.730Z,32.05
2018-11-10T03:36:19.657Z,32.67
2018-11-10T03:38:48.596Z,37.25
2018-11-10T03:41:17.553Z,29.72
2018-11-10T03:43:46.468Z,32.13
2018-11-10T03:46:15.415Z,30.30
2018-11-10T03:48:44.407Z,30.23
2018-11-10T03:51:13.284Z,32.20
2018-11-10T03:53:42.500Z,27.98
2018-11-10T03:56:11.436Z,30.15
2018-11-10T03:58:40.358Z,31.05
2018-11-10T04:01:09.294Z,29.80
2018-11-10T04:03:38.233Z,25.23
2018-11-10T04:06:07.167Z,30.30
2018-11-10T04:08:36.095Z,28.30
2018-11-10T04:11:05.278Z,31.17
2018-11-10T04:13:34.197Z,29.72
2018-11-10T04:16:03.145Z,28.20
2018-11-10T04:18:32.062Z,28.15
2018-11-10T04:21:01.001Z,27.82
2018-11-10T04:23:29.942Z,25.37
2018-11-10T04:25:58.882Z,32.13
2018-11-10T04:28:27.805Z,31.68
2018-11-10T04:30:56.709Z,27.45
2018-11-10T04:33:25.645Z,28.57
2018-11-10T04:35:54.577Z,28.73
2018-11-10T04:38:23.531Z,29.27
2018-11-10T04:40:52.449Z,32.35
2018-11-10T04:43:21.369Z,26.27
2018-11-10T04:45:50.285Z,28.15
2018-11-10T04:48:19.217Z,29.37
2018-11-10T04:50:48.153Z,26.27
2018-11-10T04:53:17.073Z,26.20
2018-11-10T04:55:45.964Z,30.77
2018-11-10T04:58:14.906Z,31.27
2018-11-10T05:00:43.796Z,24.97
2018-11-10T05:03:12.701Z,27.85
2018-11-10T05:05:41.606Z,27.50
2018-11-10T05:08:10.516Z,27.65
2018-11-10T05:10:39.429Z,27.70
2018-11-10T05:13:08.337Z,29.10
2018-11-10T05:15:37.241Z,28.23
2018-11-10T05:18:06.167Z,29.15
2018-11-10T05:20:35.075Z,27.60
2018-11-10T05:23:04.060Z,29.82
2018-11-10T05:25:32.909Z,25.55
2018-11-10T05:28:01.820Z,28.05
2018-11-10T05:30:30.713Z,26.30
2018-11-10T05:32:59.641Z,26.90
2018-11-10T05:35:28.551Z,27.97
2018-11-10T05:37:57.461Z,26.20
2018-11-10T05:40:26.413Z,28.80
2018-11-10T05:42:55.329Z,24.87
2018-11-10T05:45:24.247Z,24.80
2018-11-10T05:47:53.189Z,24.92
2018-11-10T05:50:22.098Z,25.77
2018-11-10T05:52:51.028Z,25.27
2018-11-10T05:55:19.934Z,23.50
2018-11-10T05:57:48.873Z,26.73
2018-11-10T06:00:17.789Z,26.03
2018-11-10T06:02:46.745Z,24.77
2018-11-10T06:05:15.666Z,28.67
2018-11-10T06:07:44.590Z,23.92
2018-11-10T06:10:13.633Z,28.10
2018-11-10T06:12:43.172Z,28.00
2018-11-10T06:15:12.102Z,26.52
2018-11-10T06:17:41.109Z,21.90
2018-11-10T06:20:11.666Z,27.80
2018-11-10T06:22:40.628Z,27.13
2018-11-10T06:25:10.482Z,21.90
2018-11-10T06:27:39.511Z,24.55
2018-11-10T06:30:10.492Z,25.92
2018-11-10T06:32:39.799Z,23.73
2018-11-10T06:35:09.118Z,24.87
2018-11-10T06:37:38.174Z,27.42
2018-11-10T06:40:08.861Z,28.47
2018-11-10T06:42:37.797Z,23.75
2018-11-10T06:45:06.818Z,25.00
2018-11-10T06:47:36.236Z,26.47
2018-11-10T06:50:06.686Z,24.35
2018-11-10T06:52:35.641Z,23.60
2018-11-10T06:55:05.193Z,19.80
2018-11-10T06:57:34.153Z,26.35
2018-11-10T07:00:03.345Z,22.40
2018-11-10T07:02:32.258Z,22.07
2018-11-10T07:05:01.185Z,22.40
2018-11-10T07:07:30.093Z,30.37
2018-11-10T07:09:59.042Z,21.17
2018-11-10T07:12:27.976Z,21.67
2018-11-10T07:14:56.917Z,21.60
2018-11-10T07:17:25.882Z,22.65
2018-11-10T07:19:54.762Z,22.77
2018-11-10T07:22:23.673Z,23.32
2018-11-10T07:24:52.663Z,22.67
2018-11-10T07:27:21.573Z,23.60
2018-11-10T07:29:50.508Z,22.40
2018-11-10T07:32:19.418Z,23.75
2018-11-10T07:34:48.361Z,23.45
2018-11-10T07:37:17.322Z,27.17
2018-11-10T07:39:46.232Z,26.95
2018-11-10T07:42:15.141Z,25.85
2018-11-10T07:44:44.066Z,23.60
2018-11-10T07:47:12.957Z,23.27
2018-11-10T07:49:41.878Z,26.15
2018-11-10T07:52:10.853Z,23.40
2018-11-10T07:54:39.829Z,25.68
2018-11-10T07:57:09.757Z,24.60
2018-11-10T07:59:39.022Z,25.60
2018-11-10T08:02:08.490Z,24.90
2018-11-10T08:04:37.436Z,27.90
2018-11-10T08:07:06.340Z,26.33
2018-11-10T08:09:35.371Z,28.17
2018-11-10T08:12:04.367Z,26.30
2018-11-10T08:14:33.282Z,27.45
2018-11-10T08:17:02.210Z,29.77
2018-11-10T08:19:31.142Z,30.40
2018-11-10T08:22:00.989Z,30.47
2018-11-10T08:24:29.932Z,25.37
2018-11-10T08:26:58.858Z,32.20
2018-11-10T08:29:27.786Z,33.60
2018-11-10T08:31:56.697Z,32.90
2018-11-10T08:34:25.637Z,29.57
2018-11-10T08:36:54.549Z,30.23
2018-11-10T08:39:23.582Z,32.17
2018-11-10T08:41:52.482Z,32.53
2018-11-10T08:44:21.463Z,37.90
2018-11-10T08:46:50.381Z,30.80
2018-11-10T08:49:19.460Z,33.60
2018-11-10T08:51:48.329Z,36.40
2018-11-10T08:54:17.301Z,33.60
2018-11-10T08:56:46.226Z,31.15
2018-11-10T08:59:15.262Z,33.38
2018-11-10T09:01:44.125Z,32.35
2018-11-10T09:04:13.054Z,32.90
2018-11-10T09:06:41.966Z,33.93
2018-11-10T09:09:11.633Z,32.27
2018-11-10T09:11:40.656Z,32.80
2018-11-10T09:14:09.749Z,32.95
2018-11-10T09:16:38.652Z,31.57
2018-11-10T09:19:07.630Z,31.42
2018-11-10T09:21:36.662Z,32.13
2018-11-10T09:24:05.803Z,31.17
2018-11-10T09:26:34.729Z,29.37
2018-11-10T09:29:04.165Z,29.15
2018-11-10T09:31:33.107Z,29.03
2018-11-10T09:34:02.017Z,26.80
2018-11-10T09:36:31.036Z,29.87
2018-11-10T09:38:59.937Z,28.87
2018-11-10T09:41:28.865Z,30.47
2018-11-10T09:43:57.764Z,30.40
2018-11-10T09:46:26.700Z,33.18
2018-11-10T09:48:55.706Z,31.93
2018-11-10T09:51:24.642Z,30.30
2018-11-10T09:53:53.553Z,29.00
2018-11-10T09:56:22.517Z,30.60
2018-11-10T09:58:51.425Z,30.97
2018-11-10T10:01:20.442Z,30.37
2018-11-10T10:03:49.324Z,32.20
2018-11-10T10:06:18.266Z,32.60
2018-11-10T10:08:47.201Z,27.20
2018-11-10T10:11:16.223Z,32.00
2018-11-10T10:13:45.149Z,29.23
2018-11-10T10:16:14.163Z,28.30
2018-11-10T10:18:42.990Z,32.85
2018-11-10T10:21:11.989Z,25.02
2018-11-10T10:23:40.900Z,26.87
2018-11-10T10:26:09.891Z,25.10
2018-11-10T10:28:38.882Z,24.93
2018-11-10T10:31:08.305Z,23.00
2018-11-10T10:33:37.349Z,21.87
2018-11-10T10:36:06.450Z,22.63
2018-11-10T10:38:35.961Z,24.40
2018-11-10T10:41:04.965Z,24.55
2018-11-10T10:43:33.887Z,26.10
2018-11-10T10:46:02.821Z,22.13
2018-11-10T10:48:31.818Z,22.62
2018-11-10T10:51:00.822Z,26.53
2018-11-10T10:53:30.686Z,22.37
2018-11-10T10:56:00.605Z,21.65
2018-11-10T10:58:30.501Z,22.20
2018-11-10T11:01:05.472Z,27.10
2018-11-10T11:03:39.853Z,23.60
2018-11-10T11:06:08.819Z,26.07
2018-11-10T11:08:37.729Z,23.93
2018-11-10T11:11:06.693Z,27.48
2018-11-10T11:13:35.687Z,28.12
2018-11-10T11:16:05.159Z,27.27
2018-11-10T11:18:34.108Z,26.07
2018-11-10T11:21:03.078Z,26.23
2018-11-10T11:23:33.067Z,27.20
2018-11-10T11:26:02.025Z,28.20
2018-11-10T11:28:31.049Z,27.17
2018-11-10T11:31:00.026Z,31.55
2018-11-10T11:33:29.045Z,31.15
2018-11-10T11:35:58.034Z,28.27
2018-11-10T11:38:26.985Z,30.77
2018-11-10T11:40:57.167Z,29.05
2018-11-10T11:43:26.027Z,33.40
2018-11-10T11:45:54.998Z,33.23
2018-11-10T11:48:23.927Z,31.20
2018-11-10T11:50:52.841Z,28.40
2018-11-10T11:53:21.797Z,28.32
2018-11-10T11:55:50.718Z,32.85
2018-11-10T11:58:19.700Z,30.62
2018-11-10T12:00:48.585Z,36.33
2018-11-10T12:03:17.502Z,32.15
2018-11-10T12:05:46.446Z,33.40
2018-11-10T12:08:15.413Z,32.38
2018-11-10T12:10:44.327Z,28.07
2018-11-10T12:13:13.273Z,29.83
2018-11-10T12:15:42.210Z,31.97
2018-11-10T12:18:11.157Z,33.13
2018-11-10T12:20:40.112Z,31.55
2018-11-10T12:23:09.043Z,30.87
2018-11-10T12:25:37.951Z,30.80
2018-11-10T12:28:06.891Z,30.30
2018-11-10T12:30:35.932Z,37.28
2018-11-10T12:33:05.033Z,34.30
2018-11-10T12:35:33.975Z,34.75
2018-11-10T12:38:02.938Z,30.77
2018-11-10T12:40:31.884Z,33.23
2018-11-10T12:43:00.816Z,33.35
2018-11-10T12:45:30.235Z,33.75
2018-11-10T12:47:59.181Z,28.95
2018-11-10T12:50:28.113Z,27.13
2018-11-10T12:52:57.057Z,29.10
2018-11-10T12:55:26.041Z,26.93
2018-11-10T12:57:55.019Z,28.92
2018-11-10T13:00:23.898Z,28.38
2018-11-10T13:02:52.828Z,30.47
2018-11-10T13:05:21.762Z,25.23
2018-11-10T13:07:50.733Z,26.52
2018-11-10T13:10:19.658Z,24.40
2018-11-10T13:12:48.597Z,29.80
2018-11-10T13:15:17.559Z,26.40
2018-11-10T13:17:46.549Z,27.30
2018-11-10T13:20:16.145Z,27.00
2018-11-10T13:22:45.085Z,24.40
2018-11-10T13:25:14.624Z,24.12
2018-11-10T13:27:43.548Z,28.17
2018-11-10T13:30:13.957Z,23.85
2018-11-10T13:32:44.125Z,27.27
2018-11-10T13:35:13.079Z,23.62
2018-11-10T13:37:42.011Z,25.02
2018-11-10T13:40:11.129Z,23.83
2018-11-10T13:42:40.054Z,25.45
2018-11-10T13:45:10.542Z,22.10
2018-11-10T13:47:39.585Z,24.50
2018-11-10T13:50:09.804Z,27.13
2018-11-10T13:52:39.707Z,26.20
2018-11-10T13:55:08.296Z,28.30
2018-11-10T13:57:37.237Z,24.77
2018-11-10T14:00:09.013Z,27.80
2018-11-10T14:02:37.926Z,24.97
2018-11-10T14:05:06.945Z,24.60
2018-11-10T14:07:35.979Z,24.60
2018-11-10T14:10:05.537Z,28.90
2018-11-10T14:12:34.551Z,25.07
2018-11-10T14:15:03.404Z,22.62
2018-11-10T14:17:32.305Z,19.95
2018-11-10T14:20:01.330Z,24.72
2018-11-10T14:22:30.233Z,25.50
2018-11-10T14:24:59.168Z,21.33
2018-11-10T14:27:28.076Z,22.17
2018-11-10T14:29:57.002Z,20.12
2018-11-10T14:32:25.917Z,19.67
2018-11-10T14:34:54.855Z,24.85
2018-11-10T14:37:23.743Z,21.77
2018-11-10T14:39:52.698Z,20.90
2018-11-10T14:42:21.595Z,24.25
2018-11-10T14:44:50.513Z,25.15
2018-11-10T14:47:19.414Z,21.68
2018-11-10T14:49:48.355Z,25.17
2018-11-10T14:52:17.454Z,24.53
2018-11-10T14:54:46.337Z,21.93
2018-11-10T14:57:15.246Z,23.40
2018-11-10T14:59:44.177Z,25.90
2018-11-10T15:02:13.089Z,24.60
2018-11-10T15:04:42.013Z,24.00
2018-11-10T15:07:10.943Z,32.58
2018-11-10T15:09:40.748Z,26.73
2018-11-10T15:12:09.658Z,24.23
2018-11-10T15:14:38.561Z,23.62
2018-11-10T15:17:07.473Z,22.90
2018-11-10T15:19:36.397Z,23.92
2018-11-10T15:22:05.765Z,24.63
2018-11-10T15:24:34.697Z,30.80
2018-11-10T15:27:03.608Z,22.90
2018-11-10T15:29:32.539Z,22.37
2018-11-10T15:32:01.440Z,26.95
2018-11-10T15:34:30.381Z,22.30
2018-11-10T15:36:59.297Z,23.67
2018-11-10T15:39:28.245Z,24.15
2018-11-10T15:41:57.153Z,25.08
2018-11-10T15:44:26.077Z,21.02
2018-11-10T15:46:54.972Z,23.50
2018-11-10T15:49:23.897Z,21.68
2018-11-10T15:51:52.865Z,23.00
2018-11-10T15:54:22.078Z,21.40
2018-11-10T15:56:51.020Z,20.70
2018-11-10T15:59:19.937Z,19.07
2018-11-10T16:01:48.920Z,20.60
2018-11-10T16:04:17.816Z,19.92
2018-11-10T16:06:46.729Z,20.17
2018-11-10T16:09:15.711Z,18.47
2018-11-10T16:11:44.604Z,18.23
2018-11-10T16:14:13.496Z,18.42
2018-11-10T16:16:42.408Z,21.23
2018-11-10T16:19:11.322Z,15.90
2018-11-10T16:21:40.249Z,20.00
2018-11-10T16:24:09.150Z,20.45
2018-11-10T16:26:38.064Z,15.43
2018-11-10T16:29:06.981Z,19.97
2018-11-10T16:31:35.902Z,18.33
2018-11-10T16:34:04.813Z,19.23
2018-11-10T16:36:33.726Z,18.35
2018-11-10T16:39:02.661Z,17.37
2018-11-10T16:41:31.573Z,18.50
2018-11-10T16:44:00.486Z,35.05
2018-11-10T16:46:29.400Z,27.03
2018-11-10T16:48:58.325Z,22.37
2018-11-10T16:51:27.240Z,24.93
2018-11-10T16:53:56.138Z,80.05
2018-11-10T16:56:25.049Z,19.80
2018-11-10T16:58:53.973Z,24.07
2018-11-10T17:01:23.320Z,26.17
2018-11-10T17:03:52.208Z,17.57
2018-11-10T17:06:21.144Z,20.00
2018-11-10T17:08:50.138Z,22.30
2018-11-10T17:11:18.997Z,42.15
2018-11-10T17:13:47.917Z,52.20
2018-11-10T17:16:16.921Z,23.10
2018-11-10T17:18:45.927Z,51.10
2018-11-10T17:21:14.859Z,18.05
2018-11-10T17:23:43.811Z,16.80
2018-11-10T17:26:12.742Z,21.13
2018-11-10T17:28:41.675Z,24.32
2018-11-10T17:31:10.597Z,17.90
2018-11-10T17:33:39.529Z,18.85
2018-11-10T17:36:08.453Z,16.33
2018-11-10T17:38:37.401Z,17.32
2018-11-10T17:41:06.409Z,17.00
2018-11-10T17:43:35.337Z,17.75
2018-11-10T17:46:04.319Z,17.20
2018-11-10T17:48:33.393Z,16.05
2018-11-10T17:51:02.234Z,15.88
2018-11-10T17:53:31.151Z,19.60
2018-11-10T17:56:00.066Z,16.95
2018-11-10T17:58:29.087Z,17.77
2018-11-10T18:00:57.929Z,15.53
2018-11-10T18:03:26.897Z,16.97
2018-11-10T18:05:55.822Z,15.77
2018-11-10T18:08:24.788Z,16.93
2018-11-10T18:10:53.705Z,16.20
2018-11-10T18:13:22.671Z,19.27
2018-11-10T18:15:51.590Z,17.48
2018-11-10T18:18:20.552Z,21.15
2018-11-10T18:20:49.472Z,17.20
2018-11-10T18:23:18.401Z,17.45
2018-11-10T18:25:48.116Z,21.37
2018-11-10T18:28:17.318Z,17.23
2018-11-10T18:30:46.233Z,17.20
2018-11-10T18:35:56.330Z,30.27
2018-11-10T18:38:25.299Z,18.73
2018-11-10T18:40:54.241Z,18.93
2018-11-10T18:43:23.211Z,27.83
2018-11-10T18:45:52.153Z,15.93
2018-11-10T18:48:21.153Z,18.87
2018-11-10T18:50:50.090Z,19.73
2018-11-10T18:53:19.030Z,18.57
2018-11-10T18:55:47.934Z,18.77
2018-11-10T18:58:17.003Z,17.98
2018-11-10T19:00:45.796Z,16.33
2018-11-10T19:03:14.747Z,15.43
2018-11-10T19:05:43.675Z,15.35
2018-11-10T19:08:12.631Z,16.25
2018-11-10T19:10:41.601Z,19.20
2018-11-10T19:13:10.546Z,14.80
2018-11-10T19:15:39.486Z,17.00
2018-11-10T19:18:08.457Z,14.03
2018-11-10T19:20:37.417Z,18.02
2018-11-10T19:23:06.436Z,15.80
2018-11-10T19:25:35.323Z,16.35
2018-11-10T19:28:04.282Z,19.30
2018-11-10T19:30:33.228Z,16.97
2018-11-10T19:33:09.217Z,17.48
2018-11-10T19:35:38.182Z,22.20
2018-11-10T19:38:07.159Z,17.90
2018-11-10T19:40:36.133Z,15.00
2018-11-10T19:43:05.168Z,15.07
2018-11-10T19:45:34.130Z,14.70
2018-11-10T19:48:03.106Z,15.20
2018-11-10T19:50:32.196Z,15.60
2018-11-10T19:53:01.598Z,16.50
2018-11-10T19:55:30.601Z,19.10
2018-11-10T19:57:59.610Z,16.10
2018-11-10T20:00:28.650Z,17.35
2018-11-10T20:02:57.614Z,16.67
2018-11-10T20:05:26.602Z,18.30
2018-11-10T20:07:55.579Z,17.20
2018-11-10T20:10:24.540Z,18.17
2018-11-10T20:12:54.471Z,16.10
2018-11-10T20:15:23.418Z,17.75
2018-11-10T20:17:52.390Z,19.37
2018-11-10T20:20:21.389Z,19.00
2018-11-10T20:22:50.392Z,18.30
2018-11-10T20:25:19.941Z,18.30
2018-11-10T20:27:48.894Z,16.97
2018-11-10T20:30:19.641Z,18.30
2018-11-10T20:32:48.706Z,20.07
2018-11-10T20:35:17.661Z,19.00
2018-11-10T20:37:47.154Z,17.05
2018-11-10T20:40:16.591Z,18.50
2018-11-10T20:42:45.583Z,17.35
2018-11-10T20:45:16.478Z,18.52
2018-11-10T20:47:45.442Z,19.15
2018-11-10T20:50:15.162Z,19.80
2018-11-10T20:52:44.141Z,17.67
2018-11-10T20:55:13.734Z,16.55
2018-11-10T20:57:42.721Z,16.93
2018-11-10T21:00:13.818Z,16.85
2018-11-10T21:02:43.618Z,15.97
2018-11-10T21:05:12.993Z,16.12
2018-11-10T21:07:42.098Z,12.82
2018-11-10T21:10:15.055Z,16.00
2018-11-10T21:12:44.925Z,15.40
2018-11-10T21:15:15.613Z,15.25
2018-11-10T21:17:44.637Z,15.63
2018-11-10T21:20:13.965Z,19.25
2018-11-10T21:22:43.314Z,16.17
2018-11-10T21:25:14.121Z,14.78
2018-11-10T21:27:43.265Z,13.80
2018-11-10T21:30:14.506Z,15.05
2018-11-10T21:32:43.640Z,13.58
2018-11-10T21:35:12.723Z,13.77
2018-11-10T21:37:41.549Z,15.63
2018-11-10T21:40:14.000Z,63.17
2018-11-10T21:42:43.320Z,41.17
2018-11-10T21:45:13.110Z,17.52
2018-11-10T21:47:42.069Z,14.87
2018-11-10T21:50:12.540Z,13.70
2018-11-10T21:52:42.359Z,14.78
2018-11-10T21:55:13.074Z,14.20
2018-11-10T21:57:42.634Z,14.63
2018-11-10T22:00:13.204Z,13.75
2018-11-10T22:02:42.863Z,14.68
2018-11-10T22:05:11.933Z,13.40
2018-11-10T22:07:40.869Z,17.05
2018-11-10T22:10:11.952Z,15.80
2018-11-10T22:12:41.113Z,15.45
2018-11-10T22:15:12.610Z,17.90
2018-11-10T22:17:42.539Z,14.50
2018-11-10T22:20:12.991Z,17.17
2018-11-10T22:22:42.071Z,13.27
2018-11-10T22:25:11.825Z,13.33
2018-11-10T22:27:42.388Z,15.45
2018-11-10T22:30:13.117Z,18.37
2018-11-10T22:32:42.433Z,14.50
2018-11-10T22:35:11.495Z,12.47
2018-11-10T22:37:40.789Z,13.93
2018-11-10T22:40:11.709Z,16.10
2018-11-10T22:42:41.153Z,14.13
2018-11-10T22:45:11.749Z,14.80
2018-11-10T22:47:41.279Z,16.40
2018-11-10T22:50:12.550Z,12.20
2018-11-10T22:52:41.516Z,14.05
2018-11-10T22:55:10.717Z,12.53
2018-11-10T22:57:39.757Z,12.05
2018-11-10T23:00:18.239Z,13.80
2018-11-10T23:02:49.332Z,13.95
2018-11-10T23:05:18.815Z,11.90
2018-11-10T23:07:47.746Z,15.33
2018-11-10T23:10:17.236Z,13.83
2018-11-10T23:12:47.016Z,14.03
2018-11-10T23:15:15.913Z,12.47
2018-11-10T23:17:44.817Z,12.13
2018-11-10T23:20:15.467Z,12.70
2018-11-10T23:22:44.482Z,13.08
2018-11-10T23:25:15.693Z,10.80
2018-11-10T23:27:44.583Z,12.20
2018-11-10T23:30:15.861Z,10.72
2018-11-10T23:32:44.796Z,15.27
2018-11-10T23:35:13.737Z,11.33
2018-11-10T23:37:42.651Z,11.00
2018-11-10T23:40:13.245Z,9.63
2018-11-10T23:42:42.533Z,13.87
2018-11-10T23:45:11.925Z,9.63
2018-11-10T23:47:40.835Z,10.23
2018-11-10T23:50:12.009Z,12.10
2018-11-10T23:52:40.937Z,12.50
2018-11-10T23:55:10.982Z,9.60
2018-11-10T23:57:40.041Z,11.57
